Destrehan, Louisiana
Current Conditions -  °F | °C
As of 7:53 AM on Wednesday 26 Nov 2014 (Local Time) from KMSY Reporting Station
Few Clouds Few Clouds  
Wind Chill: 43°   Ceiling: Unl
Heat Index: 45°   Visibility: 10mi
Dew Point: 39°   Wind: 5mph
Humidity: 80%   Direction: 180°S
Pressure: 30.28"   Gusts: NA
Location:  29.95°N, 90.39°W
Report Text: KMSY 261353Z 18004KT 10SM FEW010 07/04 A3028 RMK AO2 SLP256 FU FEW010 T00720039
Loading
Personal Weather Stations






























Interactive Weather Map New forecast layout! Learn more

10-Day Weather Forecast

Advertisements
Track Severe Weather on mobile